createdAt,value
2019-01-30T00:02:27.771Z,79.10
2019-01-30T00:04:58.982Z,79.30
2019-01-30T00:07:30.055Z,79.50
2019-01-30T00:10:01.138Z,79.40
2019-01-30T00:12:32.754Z,79.20
2019-01-30T00:15:03.893Z,79.20
2019-01-30T00:17:34.993Z,79.20
2019-01-30T00:20:07.149Z,78.60
2019-01-30T00:22:37.847Z,79.20
2019-01-30T00:25:09.033Z,79.20
2019-01-30T00:27:39.673Z,78.80
2019-01-30T00:30:11.751Z,78.70
2019-01-30T00:32:42.971Z,79.30
2019-01-30T00:35:13.787Z,79.20
2019-01-30T00:37:44.408Z,79.50
2019-01-30T00:40:15.413Z,79.20
2019-01-30T00:42:46.530Z,78.50
2019-01-30T00:48:17.352Z,78.20
2019-01-30T00:50:48.110Z,78.10
2019-01-30T00:53:18.886Z,78.30
2019-01-30T00:55:49.598Z,79.00
2019-01-30T00:58:20.437Z,79.10
2019-01-30T01:00:51.154Z,77.80
2019-01-30T01:03:22.170Z,77.20
2019-01-30T01:05:54.610Z,77.90
2019-01-30T01:08:25.418Z,77.70
2019-01-30T01:10:56.753Z,77.10
2019-01-30T01:13:27.597Z,76.80
2019-01-30T01:15:58.069Z,76.90
2019-01-30T01:18:28.852Z,76.70
2019-01-30T01:20:59.887Z,77.10
2019-01-30T01:23:30.477Z,76.60
2019-01-30T01:26:00.989Z,77.20
2019-01-30T01:28:31.475Z,77.20
2019-01-30T01:31:02.007Z,77.50
2019-01-30T01:33:32.631Z,80.60
2019-01-30T01:36:03.198Z,78.70
2019-01-30T01:38:33.657Z,77.40
2019-01-30T01:41:04.478Z,76.30
2019-01-30T01:43:35.408Z,76.60
2019-01-30T01:46:06.102Z,76.00
2019-01-30T01:48:36.566Z,76.40
2019-01-30T01:51:07.208Z,76.10
2019-01-30T01:53:38.885Z,76.10
2019-01-30T01:56:09.750Z,75.70
2019-01-30T01:58:41.216Z,75.70
2019-01-30T02:01:12.020Z,75.40
2019-01-30T02:03:42.740Z,76.00
2019-01-30T02:06:13.533Z,76.40
2019-01-30T02:08:44.150Z,76.40
2019-01-30T02:11:14.992Z,76.50
2019-01-30T02:13:45.814Z,76.40
2019-01-30T02:16:16.370Z,77.00
2019-01-30T02:18:47.604Z,77.00
2019-01-30T02:21:18.682Z,77.10
2019-01-30T02:23:49.631Z,77.10
2019-01-30T02:26:20.685Z,76.70
2019-01-30T02:28:51.345Z,76.80
2019-01-30T02:31:22.319Z,77.30
2019-01-30T02:33:53.420Z,78.20
2019-01-30T02:36:24.357Z,78.30
2019-01-30T02:38:54.966Z,78.10
2019-01-30T02:41:25.562Z,77.80
2019-01-30T02:43:56.129Z,76.50
2019-01-30T02:46:27.063Z,77.10
2019-01-30T02:48:58.763Z,76.80
2019-01-30T02:51:29.853Z,76.90
2019-01-30T02:54:00.699Z,77.20
2019-01-30T02:56:31.607Z,77.80
2019-01-30T02:59:02.275Z,78.80
2019-01-30T03:01:34.968Z,79.50
2019-01-30T03:04:06.064Z,80.40
2019-01-30T03:06:36.687Z,80.00
2019-01-30T03:09:08.724Z,80.40
2019-01-30T03:11:39.841Z,81.30
2019-01-30T03:14:11.455Z,81.60
2019-01-30T03:16:42.428Z,82.00
2019-01-30T03:19:13.235Z,82.00
2019-01-30T03:21:43.864Z,81.80
2019-01-30T03:24:14.391Z,82.40
2019-01-30T03:26:44.967Z,81.90
2019-01-30T03:29:15.906Z,81.20
2019-01-30T03:31:46.467Z,80.50
2019-01-30T03:34:17.093Z,81.00
2019-01-30T03:36:48.777Z,82.20
2019-01-30T03:39:19.322Z,81.70
2019-01-30T03:41:50.133Z,82.10
2019-01-30T03:44:20.749Z,81.30
2019-01-30T03:46:51.571Z,81.30
2019-01-30T03:49:23.012Z,81.70
2019-01-30T03:51:53.813Z,80.90
2019-01-30T03:54:24.751Z,81.70
2019-01-30T03:56:55.437Z,81.50
2019-01-30T03:59:25.903Z,80.80
2019-01-30T04:01:56.610Z,80.30
2019-01-30T04:04:27.072Z,80.30
2019-01-30T04:06:57.703Z,80.90
2019-01-30T04:09:28.303Z,81.50
2019-01-30T04:11:59.217Z,81.60
2019-01-30T04:14:29.968Z,81.30
2019-01-30T04:17:00.621Z,80.90
2019-01-30T04:19:31.139Z,80.30
2019-01-30T04:22:02.015Z,80.30
2019-01-30T04:24:32.885Z,80.30
2019-01-30T04:27:03.482Z,80.80
2019-01-30T04:29:34.088Z,81.60
2019-01-30T04:32:04.943Z,81.60
2019-01-30T04:34:35.531Z,82.00
2019-01-30T04:37:06.300Z,82.00
2019-01-30T04:39:37.160Z,81.70
2019-01-30T04:42:07.709Z,82.00
2019-01-30T04:44:38.368Z,82.30
2019-01-30T04:47:08.951Z,82.10
2019-01-30T04:49:39.629Z,82.30
2019-01-30T04:52:10.483Z,82.10
2019-01-30T04:54:41.211Z,82.10
2019-01-30T04:57:11.803Z,82.50
2019-01-30T04:59:42.762Z,82.50
2019-01-30T05:02:13.274Z,82.50
2019-01-30T05:04:44.145Z,82.70
2019-01-30T05:07:14.612Z,83.00
2019-01-30T05:09:45.432Z,83.80
2019-01-30T05:12:16.444Z,83.20
2019-01-30T05:14:47.872Z,83.20
2019-01-30T05:17:18.657Z,83.90
2019-01-30T05:19:49.653Z,83.20
2019-01-30T05:22:20.536Z,83.00
2019-01-30T05:24:51.222Z,83.40
2019-01-30T05:27:22.186Z,83.90
2019-01-30T05:29:53.319Z,84.80
2019-01-30T05:32:24.287Z,85.00
2019-01-30T05:34:55.068Z,84.80
2019-01-30T05:37:25.886Z,84.20
2019-01-30T05:39:56.674Z,84.00
2019-01-30T05:42:27.604Z,84.60
2019-01-30T05:44:58.137Z,85.00
2019-01-30T05:47:28.879Z,86.50
2019-01-30T05:49:59.685Z,86.40
2019-01-30T05:52:30.407Z,86.70
2019-01-30T05:55:01.007Z,87.00
2019-01-30T05:57:32.186Z,86.00
2019-01-30T06:00:02.775Z,86.90
2019-01-30T06:02:33.679Z,86.40
2019-01-30T06:05:05.034Z,87.00
2019-01-30T06:07:35.605Z,85.90
2019-01-30T06:10:07.697Z,85.80
2019-01-30T06:12:38.705Z,86.00
2019-01-30T06:15:10.129Z,86.80
2019-01-30T06:17:41.274Z,86.70
2019-01-30T06:20:16.051Z,86.50
2019-01-30T06:22:46.718Z,86.90
2019-01-30T06:25:17.600Z,87.10
2019-01-30T06:27:48.765Z,87.10
2019-01-30T06:30:19.971Z,87.50
2019-01-30T06:32:51.034Z,88.30
2019-01-30T06:35:21.977Z,89.10
2019-01-30T06:37:53.898Z,89.50
2019-01-30T06:40:29.998Z,90.20
2019-01-30T06:43:02.625Z,90.20
2019-01-30T06:45:33.187Z,90.20
2019-01-30T06:48:05.248Z,90.40
2019-01-30T06:50:36.084Z,90.60
2019-01-30T06:53:07.386Z,90.70
2019-01-30T06:55:38.274Z,90.50
2019-01-30T06:58:09.334Z,90.70
2019-01-30T07:00:40.681Z,91.00
2019-01-30T07:03:11.449Z,90.70
2019-01-30T07:05:42.463Z,90.90
2019-01-30T07:08:13.478Z,90.60
2019-01-30T07:10:44.579Z,90.80
2019-01-30T07:13:15.397Z,90.70
2019-01-30T07:15:46.257Z,90.70
2019-01-30T07:18:17.132Z,90.60
2019-01-30T07:20:48.283Z,90.70
2019-01-30T07:23:18.955Z,90.70
2019-01-30T07:25:49.845Z,90.70
2019-01-30T07:28:20.754Z,90.70
2019-01-30T07:30:51.799Z,90.80
2019-01-30T07:33:22.707Z,90.80
2019-01-30T07:35:53.747Z,91.10
2019-01-30T07:38:24.577Z,91.00
2019-01-30T07:40:55.577Z,90.80
2019-01-30T07:43:26.484Z,90.80
2019-01-30T07:45:57.317Z,91.00
2019-01-30T07:48:29.030Z,90.90
2019-01-30T07:50:59.813Z,90.80
2019-01-30T07:53:30.706Z,90.80
2019-01-30T07:56:01.560Z,90.30
2019-01-30T07:58:32.500Z,90.40
2019-01-30T08:01:03.343Z,90.20
2019-01-30T08:03:34.298Z,90.10
2019-01-30T08:06:05.652Z,89.40
2019-01-30T08:08:36.594Z,89.10
2019-01-30T08:11:07.592Z,90.10
2019-01-30T08:13:38.652Z,90.80
2019-01-30T08:16:09.610Z,90.00
2019-01-30T08:18:40.817Z,90.20
2019-01-30T08:21:11.520Z,89.40
2019-01-30T08:23:42.623Z,88.30
2019-01-30T08:26:13.379Z,88.90
2019-01-30T08:28:44.011Z,90.20
2019-01-30T08:31:15.345Z,90.10
2019-01-30T08:33:46.127Z,90.00
2019-01-30T08:36:18.428Z,89.50
2019-01-30T08:38:49.378Z,89.60
2019-01-30T08:41:21.610Z,89.70
2019-01-30T08:43:52.321Z,89.90
2019-01-30T08:46:23.295Z,89.10
2019-01-30T08:48:53.906Z,90.10
2019-01-30T08:51:24.785Z,90.00
2019-01-30T08:53:55.531Z,89.70
2019-01-30T08:56:26.443Z,89.80
2019-01-30T08:58:57.551Z,89.60
2019-01-30T09:01:28.875Z,90.60
2019-01-30T09:03:59.912Z,90.50
2019-01-30T09:06:30.733Z,90.50
2019-01-30T09:09:01.615Z,90.30
2019-01-30T09:11:34.252Z,90.20
2019-01-30T09:14:05.158Z,90.60
2019-01-30T09:16:35.982Z,90.80
2019-01-30T09:19:07.344Z,90.30
2019-01-30T09:21:38.236Z,90.60
2019-01-30T09:24:09.143Z,90.60
2019-01-30T09:26:39.842Z,90.30
2019-01-30T09:29:10.378Z,90.20
2019-01-30T09:31:42.405Z,90.30
2019-01-30T09:34:13.031Z,90.00
2019-01-30T09:36:43.840Z,89.80
2019-01-30T09:39:14.478Z,89.60
2019-01-30T09:41:45.517Z,90.00
2019-01-30T09:44:16.126Z,89.20
2019-01-30T09:46:46.968Z,88.50
2019-01-30T09:49:17.878Z,89.00
2019-01-30T09:51:49.162Z,88.10
2019-01-30T09:54:19.879Z,87.50
2019-01-30T09:56:50.833Z,88.00
2019-01-30T09:59:21.919Z,88.00
2019-01-30T10:01:52.709Z,88.30
2019-01-30T10:04:23.690Z,87.30
2019-01-30T10:06:54.391Z,86.90
2019-01-30T10:09:25.538Z,86.90
2019-01-30T10:11:56.509Z,86.10
2019-01-30T10:14:27.404Z,87.40
2019-01-30T10:16:58.083Z,87.20
2019-01-30T10:19:29.042Z,87.20
2019-01-30T10:21:59.695Z,87.30
2019-01-30T10:24:30.651Z,86.50
2019-01-30T10:27:01.639Z,85.00
2019-01-30T10:29:32.585Z,86.50
2019-01-30T10:32:04.004Z,85.30
2019-01-30T10:34:36.019Z,85.10
2019-01-30T10:37:07.427Z,83.80
2019-01-30T10:39:37.996Z,84.50
2019-01-30T10:42:08.699Z,83.70
2019-01-30T10:44:41.131Z,83.30
2019-01-30T10:47:11.884Z,83.50
2019-01-30T10:49:42.655Z,83.00
2019-01-30T10:52:13.270Z,82.80
2019-01-30T10:54:44.219Z,82.60
2019-01-30T10:57:16.445Z,82.40
2019-01-30T10:59:47.460Z,81.90
2019-01-30T11:02:18.195Z,81.70
2019-01-30T11:04:49.154Z,81.20
2019-01-30T11:07:20.010Z,81.20
2019-01-30T11:09:51.302Z,81.00
2019-01-30T11:12:22.342Z,81.40
2019-01-30T11:14:53.560Z,81.80
2019-01-30T11:17:24.353Z,81.70
2019-01-30T11:19:55.756Z,81.80
2019-01-30T11:22:26.534Z,81.70
2019-01-30T11:24:57.591Z,81.90
2019-01-30T11:27:28.393Z,81.80
2019-01-30T11:29:59.152Z,81.80
2019-01-30T11:32:30.487Z,80.60
2019-01-30T11:35:01.467Z,80.60
2019-01-30T11:37:32.348Z,80.60
2019-01-30T11:40:05.105Z,81.20
2019-01-30T11:42:35.762Z,80.60
2019-01-30T11:45:09.864Z,80.90
2019-01-30T11:47:40.717Z,80.90
2019-01-30T11:50:12.620Z,81.10
2019-01-30T11:52:43.532Z,81.80
2019-01-30T11:55:14.891Z,82.50
2019-01-30T11:57:46.769Z,82.40
2019-01-30T12:00:29.862Z,83.20
2019-01-30T12:03:00.788Z,83.20
2019-01-30T12:05:31.491Z,83.80
2019-01-30T12:08:02.268Z,82.90
2019-01-30T12:10:34.067Z,83.40
2019-01-30T12:13:05.611Z,84.10
2019-01-30T12:15:38.560Z,83.20
2019-01-30T12:18:09.285Z,83.80
2019-01-30T12:20:40.289Z,83.70
2019-01-30T12:23:11.434Z,83.90
2019-01-30T12:25:42.044Z,83.70
2019-01-30T12:28:13.303Z,83.20
2019-01-30T12:30:43.830Z,82.70
2019-01-30T12:33:14.786Z,81.60
2019-01-30T12:35:45.357Z,82.80
2019-01-30T12:38:16.262Z,82.90
2019-01-30T12:40:48.532Z,83.80
2019-01-30T12:43:19.975Z,83.60
2019-01-30T12:45:50.575Z,82.30
2019-01-30T12:48:22.756Z,81.70
2019-01-30T12:50:54.047Z,81.70
2019-01-30T12:53:24.928Z,81.30
2019-01-30T12:55:55.811Z,80.80
2019-01-30T12:58:26.885Z,80.60
2019-01-30T13:00:57.965Z,81.50
2019-01-30T13:03:29.045Z,81.70
2019-01-30T13:06:00.044Z,81.60
2019-01-30T13:08:30.926Z,81.10
2019-01-30T13:11:01.631Z,81.10
2019-01-30T13:13:32.434Z,81.20
2019-01-30T13:16:03.487Z,81.30
2019-01-30T13:18:34.293Z,81.10
2019-01-30T13:21:05.247Z,81.40
2019-01-30T13:23:36.040Z,81.10
2019-01-30T13:26:07.170Z,80.40
2019-01-30T13:28:37.921Z,81.30
2019-01-30T13:31:08.680Z,81.30
2019-01-30T13:33:40.764Z,81.50
2019-01-30T13:36:11.853Z,82.00
2019-01-30T13:38:42.559Z,80.70
2019-01-30T13:41:13.964Z,79.90
2019-01-30T13:43:44.597Z,80.40
2019-01-30T13:46:15.769Z,80.80
2019-01-30T13:48:46.290Z,81.20
2019-01-30T13:51:17.319Z,81.60
2019-01-30T13:53:48.318Z,81.50
2019-01-30T13:56:18.933Z,82.30
2019-01-30T13:58:49.774Z,81.80
2019-01-30T14:01:20.828Z,82.00
2019-01-30T14:03:51.806Z,83.00
2019-01-30T14:06:22.631Z,83.20
2019-01-30T14:08:53.764Z,83.40
2019-01-30T14:11:24.689Z,83.30
2019-01-30T14:13:55.320Z,83.70
2019-01-30T14:16:26.226Z,83.60
2019-01-30T14:19:00.040Z,83.70
2019-01-30T14:21:30.673Z,83.40
2019-01-30T14:24:01.872Z,83.80
2019-01-30T14:26:32.680Z,83.80
2019-01-30T14:29:03.293Z,83.60
2019-01-30T14:31:34.340Z,83.90
2019-01-30T14:34:05.608Z,83.70
2019-01-30T14:36:36.475Z,83.60
2019-01-30T14:39:09.654Z,84.10
2019-01-30T14:41:41.083Z,84.10
2019-01-30T14:44:12.051Z,84.00
2019-01-30T14:46:43.373Z,84.30
2019-01-30T14:49:14.216Z,83.70
2019-01-30T14:51:45.404Z,84.50
2019-01-30T14:54:16.440Z,84.00
2019-01-30T14:56:47.265Z,83.50
2019-01-30T14:59:17.948Z,84.40
2019-01-30T15:01:49.973Z,84.40
2019-01-30T15:04:20.913Z,84.90
2019-01-30T15:06:51.993Z,85.30
2019-01-30T15:09:22.900Z,85.60
2019-01-30T15:11:54.030Z,85.40
2019-01-30T15:14:25.664Z,86.30
2019-01-30T15:16:56.180Z,86.50
2019-01-30T15:19:28.245Z,86.20
2019-01-30T15:21:59.020Z,86.60
2019-01-30T15:24:29.649Z,86.70
2019-01-30T15:27:00.299Z,87.00
2019-01-30T15:29:31.030Z,87.10
2019-01-30T15:32:01.868Z,87.20
2019-01-30T15:34:32.310Z,87.50
2019-01-30T15:37:02.956Z,87.60
2019-01-30T15:39:33.780Z,87.60
2019-01-30T15:42:04.957Z,87.70
2019-01-30T15:44:35.674Z,88.20
2019-01-30T15:47:06.552Z,88.40
2019-01-30T15:49:37.594Z,88.30
2019-01-30T15:52:08.286Z,88.30
2019-01-30T15:54:38.957Z,88.30
2019-01-30T15:57:09.977Z,88.30
2019-01-30T15:59:40.986Z,88.30
2019-01-30T16:02:11.911Z,88.50
2019-01-30T16:04:42.933Z,88.40
2019-01-30T16:07:14.161Z,88.20
2019-01-30T16:09:45.252Z,88.20
2019-01-30T16:12:16.099Z,88.20
2019-01-30T16:14:47.061Z,88.70
2019-01-30T16:17:17.678Z,88.60
2019-01-30T16:19:49.391Z,88.90
2019-01-30T16:22:21.489Z,88.60
2019-01-30T16:24:52.685Z,88.10
2019-01-30T16:27:23.610Z,88.10
2019-01-30T16:29:54.891Z,87.60
2019-01-30T16:32:25.979Z,88.90
2019-01-30T16:34:57.637Z,89.10
2019-01-30T16:37:28.456Z,88.80
2019-01-30T16:39:59.607Z,89.60
2019-01-30T16:42:30.506Z,89.30
2019-01-30T16:45:02.606Z,90.40
2019-01-30T16:47:33.996Z,91.20
2019-01-30T16:50:04.985Z,91.50
2019-01-30T16:52:35.887Z,91.70
2019-01-30T16:55:07.992Z,91.80
2019-01-30T16:57:40.774Z,91.90
2019-01-30T17:00:21.606Z,91.90
2019-01-30T17:02:52.934Z,91.70
2019-01-30T17:05:24.032Z,92.10
2019-01-30T17:07:55.197Z,92.30
2019-01-30T17:10:26.680Z,92.10
2019-01-30T17:12:57.825Z,91.90
2019-01-30T17:15:30.955Z,92.20
2019-01-30T17:18:02.211Z,92.30
2019-01-30T17:20:35.427Z,92.30
2019-01-30T17:23:06.729Z,91.90
2019-01-30T17:25:39.869Z,92.20
2019-01-30T17:28:11.510Z,92.10
2019-01-30T17:30:58.187Z,92.30
2019-01-30T17:33:29.500Z,92.50
2019-01-30T17:36:00.724Z,92.70
2019-01-30T17:38:31.911Z,93.00
2019-01-30T17:41:03.248Z,92.80
2019-01-30T17:43:34.431Z,93.00
2019-01-30T17:46:05.640Z,93.20
2019-01-30T17:48:37.042Z,93.10
2019-01-30T17:51:08.217Z,93.30
2019-01-30T17:53:39.542Z,93.30
2019-01-30T17:56:10.582Z,93.20
2019-01-30T17:58:41.873Z,93.30
2019-01-30T18:01:13.027Z,93.20
2019-01-30T18:03:44.373Z,93.30
2019-01-30T18:06:15.113Z,93.40
2019-01-30T18:08:46.563Z,93.50
2019-01-30T18:11:17.723Z,93.20
2019-01-30T18:13:48.788Z,93.50
2019-01-30T18:16:19.808Z,93.30
2019-01-30T18:18:50.891Z,93.10
2019-01-30T18:21:22.100Z,93.00
2019-01-30T18:23:52.758Z,92.50
2019-01-30T18:26:23.750Z,92.80
2019-01-30T18:28:54.844Z,93.10
2019-01-30T18:31:25.994Z,92.90
2019-01-30T18:33:57.217Z,92.80
2019-01-30T18:36:28.567Z,92.60
2019-01-30T18:38:59.624Z,93.00
2019-01-30T18:41:31.163Z,92.90
2019-01-30T18:44:02.308Z,92.90
2019-01-30T18:46:33.368Z,92.90
2019-01-30T18:49:04.286Z,93.20
2019-01-30T18:51:35.394Z,93.40
2019-01-30T18:54:06.645Z,93.20
2019-01-30T18:56:37.682Z,93.30
2019-01-30T18:59:08.847Z,93.20
2019-01-30T19:01:39.893Z,92.90
2019-01-30T19:04:12.270Z,92.80
2019-01-30T19:06:52.004Z,92.10
2019-01-30T19:09:16.371Z,91.30
2019-01-30T19:11:48.090Z,90.50
2019-01-30T19:14:19.065Z,90.60
2019-01-30T19:16:49.930Z,90.90
2019-01-30T19:19:20.878Z,91.10
2019-01-30T19:21:52.075Z,91.10
2019-01-30T19:24:23.127Z,90.70
2019-01-30T19:26:53.792Z,90.50
2019-01-30T19:29:24.480Z,90.40
2019-01-30T19:31:55.611Z,90.50
2019-01-30T19:34:26.710Z,90.60
2019-01-30T19:37:03.689Z,90.90
2019-01-30T19:39:30.909Z,91.00
2019-01-30T19:42:02.193Z,91.00
2019-01-30T19:44:33.447Z,90.50
2019-01-30T19:47:04.420Z,90.90
2019-01-30T19:49:35.386Z,90.50
2019-01-30T19:52:06.741Z,90.60
2019-01-30T19:54:38.329Z,90.50
2019-01-30T19:57:09.753Z,90.60
2019-01-30T19:59:40.623Z,90.70
2019-01-30T20:02:11.994Z,90.50
2019-01-30T20:04:42.836Z,90.60
2019-01-30T20:07:15.117Z,90.30
2019-01-30T20:09:46.094Z,90.50
2019-01-30T20:12:18.916Z,90.30
2019-01-30T20:14:50.320Z,90.30
2019-01-30T20:17:21.289Z,90.30
2019-01-30T20:19:52.472Z,90.60
2019-01-30T20:22:23.279Z,90.70
2019-01-30T20:24:54.583Z,90.70
2019-01-30T20:27:26.678Z,90.60
2019-01-30T20:29:57.698Z,90.70
2019-01-30T20:32:28.531Z,90.70
2019-01-30T20:35:00.322Z,90.60
2019-01-30T20:37:31.476Z,90.50
2019-01-30T20:40:02.506Z,90.50
2019-01-30T20:42:33.480Z,90.50
2019-01-30T20:45:05.252Z,90.60
2019-01-30T20:47:36.047Z,91.10
2019-01-30T20:50:09.002Z,91.40
2019-01-30T20:52:40.237Z,91.80
2019-01-30T20:55:11.859Z,91.20
2019-01-30T20:57:42.791Z,91.00
2019-01-30T21:00:20.403Z,91.10
2019-01-30T21:02:51.516Z,90.40
2019-01-30T21:05:22.693Z,90.80
2019-01-30T21:07:53.614Z,90.70
2019-01-30T21:10:26.909Z,90.50
2019-01-30T21:12:57.766Z,90.30
2019-01-30T21:15:28.573Z,90.40
2019-01-30T21:17:59.554Z,90.20
2019-01-30T21:20:30.186Z,90.80
2019-01-30T21:23:01.043Z,90.40
2019-01-30T21:25:32.219Z,90.60
2019-01-30T21:28:03.111Z,90.70
2019-01-30T21:30:35.879Z,90.70
2019-01-30T21:33:08.355Z,90.70
2019-01-30T21:35:39.412Z,90.60
2019-01-30T21:38:10.048Z,90.90
2019-01-30T21:40:41.073Z,90.80
2019-01-30T21:43:11.685Z,90.80
2019-01-30T21:45:42.606Z,91.00
2019-01-30T21:48:13.690Z,90.70
2019-01-30T21:50:44.806Z,90.80
2019-01-30T21:53:15.708Z,90.80
2019-01-30T21:55:46.673Z,90.60
2019-01-30T21:58:17.980Z,90.70
2019-01-30T22:00:49.175Z,90.80
2019-01-30T22:03:20.205Z,90.80
2019-01-30T22:05:51.025Z,90.30
2019-01-30T22:08:22.683Z,90.40
2019-01-30T22:10:54.852Z,90.30
2019-01-30T22:13:25.410Z,90.40
2019-01-30T22:15:56.920Z,90.30
2019-01-30T22:18:27.714Z,90.50
2019-01-30T22:20:58.654Z,90.70
2019-01-30T22:23:29.402Z,90.70
2019-01-30T22:26:00.341Z,90.60
2019-01-30T22:28:30.816Z,90.80
2019-01-30T22:31:01.868Z,90.70
2019-01-30T22:33:33.686Z,90.70
2019-01-30T22:36:04.566Z,91.00
2019-01-30T22:38:35.122Z,90.70
2019-01-30T22:41:06.180Z,91.00
2019-01-30T22:43:36.803Z,91.00
2019-01-30T22:46:07.671Z,91.10
2019-01-30T22:48:38.563Z,91.00
2019-01-30T22:51:09.374Z,91.10
2019-01-30T22:53:40.052Z,91.10
2019-01-30T22:56:11.576Z,91.20
2019-01-30T22:58:42.388Z,91.30
2019-01-30T23:01:37.853Z,91.50
2019-01-30T23:04:22.257Z,91.50
2019-01-30T23:07:20.136Z,91.60
2019-01-30T23:10:43.085Z,91.40
2019-01-30T23:13:34.379Z,91.50
2019-01-30T23:16:40.019Z,91.10
2019-01-30T23:19:34.220Z,91.30
2019-01-30T23:22:16.007Z,91.50
2019-01-30T23:25:17.562Z,91.30
2019-01-30T23:28:19.728Z,91.30
2019-01-30T23:31:07.595Z,91.60
2019-01-30T23:34:13.982Z,91.70
2019-01-30T23:37:10.121Z,91.50
2019-01-30T23:40:30.661Z,91.50
2019-01-30T23:43:34.272Z,91.40
2019-01-30T23:46:31.813Z,91.80
2019-01-30T23:49:47.107Z,91.90
2019-01-30T23:52:48.711Z,91.60
2019-01-30T23:55:54.418Z,91.80
2019-01-30T23:59:06.785Z,91.60
